Ora Direzione Vento Velocita' Vento Media Vento Raffica Max. Temperatura Wind Chill Pioggia Pressione
23:25:49.0169 °(S)0.0 Kts0.0 Kts9.1 Kts7.9 °C7.9 °C0.0 mm1017.0 Hpa
23:04:09.0154 °(SSE)0.2 Kts0.0 Kts9.1 Kts8.3 °C8.3 °C0.0 mm1017.0 Hpa
22:44:50.0150 °(SSE)0.8 Kts0.6 Kts9.1 Kts8.5 °C8.5 °C0.0 mm1017.0 Hpa
22:25:18.0147 °(SSE)0.0 Kts0.0 Kts9.1 Kts8.6 °C8.6 °C0.0 mm1018.0 Hpa
22:03:38.0156 °(SSE)4.3 Kts4.3 Kts9.1 Kts8.6 °C7.0 °C0.0 mm1017.0 Hpa
21:44:14.0144 °(SE)2.7 Kts1.4 Kts9.1 Kts8.8 °C8.8 °C0.0 mm1018.0 Hpa
21:24:51.0142 °(SE)1.9 Kts1.6 Kts9.1 Kts8.5 °C8.5 °C0.0 mm1018.0 Hpa
21:05:18.0128 °(SE)1.9 Kts1.8 Kts9.1 Kts8.6 °C8.6 °C0.0 mm1017.0 Hpa
20:43:47.0170 °(S)1.8 Kts1.0 Kts9.1 Kts8.2 °C8.2 °C0.0 mm1017.0 Hpa
20:24:28.0169 °(S)1.8 Kts1.6 Kts9.1 Kts8.0 °C8.0 °C0.0 mm1017.0 Hpa
20:04:56.0179 °(S)2.1 Kts2.1 Kts9.1 Kts7.8 °C7.4 °C0.0 mm1017.0 Hpa
19:45:26.0180 °(S)2.7 Kts2.5 Kts9.1 Kts8.5 °C8.0 °C0.0 mm1017.0 Hpa
19:23:46.0151 °(SSE)0.8 Kts0.6 Kts9.1 Kts8.7 °C8.7 °C0.0 mm1017.0 Hpa
19:04:21.0150 °(SSE)1.8 Kts1.6 Kts9.1 Kts9.3 °C9.3 °C0.0 mm1017.0 Hpa
18:44:55.0188 °(S)1.8 Kts1.6 Kts9.1 Kts9.5 °C9.5 °C0.0 mm1017.0 Hpa
18:25:16.0218 °(SW)1.8 Kts1.6 Kts9.1 Kts10.4 °C10.4 °C0.0 mm1017.0 Hpa
18:05:45.0226 °(SW)2.3 Kts1.9 Kts9.1 Kts11.0 °C11.0 °C0.0 mm1017.0 Hpa
17:44:01.0129 °(SE)0.0 Kts0.0 Kts9.1 Kts11.6 °C11.6 °C0.0 mm1017.0 Hpa
17:24:45.0126 °(SE)1.4 Kts0.8 Kts9.1 Kts12.1 °C12.1 °C0.0 mm1017.0 Hpa
17:05:15.0117 °(ESE)1.8 Kts1.6 Kts9.1 Kts13.3 °C13.3 °C0.0 mm1016.0 Hpa